createdAt,value
2017-09-09T00:00:10.070Z,14.93
2017-09-09T00:01:10.007Z,14.9
2017-09-09T00:02:09.977Z,14.87
2017-09-09T00:03:09.958Z,14.87
2017-09-09T00:04:09.935Z,14.9
2017-09-09T00:05:09.915Z,14.85
2017-09-09T00:06:09.886Z,14.91
2017-09-09T00:07:09.868Z,14.87
2017-09-09T00:08:09.899Z,14.93
2017-09-09T00:09:09.511Z,14.9
2017-09-09T00:10:09.827Z,14.87
2017-09-09T00:11:09.799Z,14.85
2017-09-09T00:12:09.767Z,14.9
2017-09-09T00:13:09.434Z,14.83
2017-09-09T00:14:09.721Z,14.86
2017-09-09T00:15:09.732Z,14.79
2017-09-09T00:16:09.677Z,14.83
2017-09-09T00:17:09.647Z,14.83
2017-09-09T00:18:09.629Z,14.85
2017-09-09T00:19:09.610Z,14.75
2017-09-09T00:20:09.588Z,14.8
2017-09-09T00:21:09.568Z,14.72
2017-09-09T00:22:09.546Z,14.79
2017-09-09T00:23:09.568Z,14.85
2017-09-09T00:24:09.496Z,14.72
2017-09-09T00:25:09.477Z,14.75
2017-09-09T00:26:09.508Z,14.67
2017-09-09T00:27:09.443Z,14.66
2017-09-09T00:28:09.411Z,14.72
2017-09-09T00:29:09.389Z,14.64
2017-09-09T00:30:09.418Z,14.61
2017-09-09T00:31:09.394Z,14.57
2017-09-09T00:32:09.329Z,14.52
2017-09-09T00:33:09.354Z,14.6
2017-09-09T00:34:08.969Z,14.56
2017-09-09T00:35:09.315Z,14.52
2017-09-09T00:36:09.238Z,14.54
2017-09-09T00:37:09.236Z,14.53
2017-09-09T00:38:09.195Z,14.48
2017-09-09T00:39:09.169Z,14.53
2017-09-09T00:40:09.149Z,14.54
2017-09-09T00:41:09.130Z,14.48
2017-09-09T00:42:08.802Z,14.48
2017-09-09T00:43:09.090Z,14.44
2017-09-09T00:44:09.059Z,14.45
2017-09-09T00:45:09.041Z,14.44
2017-09-09T00:46:09.030Z,14.41
2017-09-09T00:47:09.001Z,14.39
2017-09-09T00:48:08.983Z,14.38
2017-09-09T00:49:08.956Z,14.45
2017-09-09T00:50:08.994Z,14.41
2017-09-09T00:51:08.920Z,14.39
2017-09-09T00:52:08.586Z,14.35
2017-09-09T00:53:08.869Z,14.39
2017-09-09T00:54:08.850Z,14.38
2017-09-09T00:55:08.828Z,14.42
2017-09-09T00:56:08.805Z,14.41
2017-09-09T00:57:08.786Z,14.39
2017-09-09T00:58:08.760Z,14.31
2017-09-09T00:59:08.731Z,14.34
2017-09-09T01:00:08.719Z,14.35
2017-09-09T01:01:08.400Z,14.31
2017-09-09T01:02:08.675Z,14.29
2017-09-09T01:03:08.656Z,14.31
2017-09-09T01:04:08.640Z,14.31
2017-09-09T01:05:08.615Z,14.27
2017-09-09T01:06:08.637Z,14.3
2017-09-09T01:07:08.567Z,14.27
2017-09-09T01:08:08.551Z,14.26
2017-09-09T01:09:08.522Z,14.27
2017-09-09T01:10:08.507Z,14.29
2017-09-09T01:11:08.479Z,14.27
2017-09-09T01:12:08.460Z,14.31
2017-09-09T01:13:08.431Z,14.34
2017-09-09T01:14:08.411Z,14.26
2017-09-09T01:15:08.386Z,14.35
2017-09-09T01:16:08.369Z,14.23
2017-09-09T01:17:08.350Z,14.24
2017-09-09T01:18:08.374Z,14.23
2017-09-09T01:19:08.301Z,14.26
2017-09-09T01:20:08.282Z,14.26
2017-09-09T01:21:08.272Z,14.23
2017-09-09T01:22:08.234Z,14.21
2017-09-09T01:23:08.215Z,14.23
2017-09-09T01:24:08.196Z,14.23
2017-09-09T01:25:08.172Z,14.21
2017-09-09T01:26:07.839Z,14.3
2017-09-09T01:27:08.138Z,14.23
2017-09-09T01:28:08.101Z,14.27
2017-09-09T01:29:08.083Z,14.2
2017-09-09T01:30:08.062Z,14.27
2017-09-09T01:31:08.039Z,14.26
2017-09-09T01:32:08.022Z,14.29
2017-09-09T01:33:07.994Z,14.29
2017-09-09T01:34:07.971Z,14.29
2017-09-09T01:35:07.957Z,14.24
2017-09-09T01:36:07.929Z,14.26
2017-09-09T01:37:07.911Z,14.31
2017-09-09T01:38:07.892Z,14.29
2017-09-09T01:39:07.867Z,14.27
2017-09-09T01:40:07.837Z,14.27
2017-09-09T01:41:07.821Z,14.35
2017-09-09T01:42:07.804Z,14.26
2017-09-09T01:43:07.774Z,14.27
2017-09-09T01:44:07.757Z,14.36
2017-09-09T01:45:07.783Z,14.29
2017-09-09T01:46:07.714Z,14.31
2017-09-09T01:47:07.743Z,14.31
2017-09-09T01:48:07.362Z,14.3
2017-09-09T01:49:07.691Z,14.27
2017-09-09T01:50:07.628Z,14.29
2017-09-09T01:51:07.296Z,14.26
2017-09-09T01:52:07.583Z,14.36
2017-09-09T01:53:07.564Z,14.31
2017-09-09T01:54:07.588Z,14.3
2017-09-09T01:55:07.519Z,14.35
2017-09-09T01:56:07.494Z,14.31
2017-09-09T01:57:07.473Z,14.3
2017-09-09T01:58:07.456Z,14.3
2017-09-09T01:59:07.427Z,14.3
2017-09-09T02:00:07.410Z,14.26
2017-09-09T02:01:07.382Z,14.35
2017-09-09T02:02:07.363Z,14.31
2017-09-09T02:03:07.354Z,14.26
2017-09-09T02:04:07.325Z,14.21
2017-09-09T02:05:07.297Z,14.23
2017-09-09T02:06:07.274Z,14.19
2017-09-09T02:07:06.953Z,14.21
2017-09-09T02:08:07.282Z,14.26
2017-09-09T02:09:07.212Z,14.24
2017-09-09T02:10:07.189Z,14.16
2017-09-09T02:11:07.169Z,14.17
2017-09-09T02:12:07.149Z,14.23
2017-09-09T02:13:07.128Z,14.2
2017-09-09T02:14:07.096Z,14.16
2017-09-09T02:15:07.093Z,14.19
2017-09-09T02:16:07.057Z,14.24
2017-09-09T02:17:07.029Z,14.11
2017-09-09T02:18:07.015Z,14.12
2017-09-09T02:19:07.028Z,14.12
2017-09-09T02:20:06.980Z,14.11
2017-09-09T02:21:06.956Z,14.06
2017-09-09T02:22:06.933Z,14.08
2017-09-09T02:23:06.904Z,14.02
2017-09-09T02:24:06.882Z,14.04
2017-09-09T02:25:06.862Z,14.01
2017-09-09T02:26:06.583Z,14.06
2017-09-09T02:27:06.816Z,14.05
2017-09-09T02:28:06.490Z,14.02
2017-09-09T02:29:06.820Z,13.96
2017-09-09T02:30:06.460Z,13.94
2017-09-09T02:31:06.733Z,13.93
2017-09-09T02:32:06.401Z,13.94
2017-09-09T02:33:06.681Z,13.99
2017-09-09T02:34:06.716Z,13.88
2017-09-09T02:35:06.635Z,13.84
2017-09-09T02:36:06.621Z,13.86
2017-09-09T02:37:06.594Z,13.86
2017-09-09T02:38:06.577Z,13.83
2017-09-09T02:39:06.564Z,13.87
2017-09-09T02:40:06.540Z,13.8
2017-09-09T02:41:06.509Z,13.8
2017-09-09T02:42:06.530Z,13.76
2017-09-09T02:43:06.470Z,13.72
2017-09-09T02:44:06.442Z,13.73
2017-09-09T02:45:06.424Z,13.73
2017-09-09T02:46:06.396Z,13.72
2017-09-09T02:47:06.376Z,13.73
2017-09-09T02:48:06.355Z,13.73
2017-09-09T02:49:06.336Z,13.75
2017-09-09T02:50:06.323Z,13.72
2017-09-09T02:51:06.288Z,13.73
2017-09-09T02:52:06.274Z,13.69
2017-09-09T02:53:06.295Z,13.71
2017-09-09T02:54:06.226Z,13.63
2017-09-09T02:55:06.202Z,13.63
2017-09-09T02:56:06.180Z,13.61
2017-09-09T02:57:06.165Z,13.57
2017-09-09T02:58:06.139Z,13.61
2017-09-09T02:59:06.071Z,13.62
2017-09-09T03:00:06.088Z,13.59
2017-09-09T03:01:06.075Z,13.59
2017-09-09T03:02:06.046Z,13.48
2017-09-09T03:03:06.021Z,13.57
2017-09-09T03:04:06.002Z,13.59
2017-09-09T03:05:05.670Z,13.51
2017-09-09T03:06:05.966Z,13.46
2017-09-09T03:07:05.934Z,13.48
2017-09-09T03:08:05.912Z,13.48
2017-09-09T03:09:05.887Z,13.51
2017-09-09T03:10:05.869Z,13.55
2017-09-09T03:11:05.845Z,13.5
2017-09-09T03:12:05.822Z,13.5
2017-09-09T03:13:05.801Z,13.5
2017-09-09T03:14:05.777Z,13.43
2017-09-09T03:15:05.767Z,13.47
2017-09-09T03:16:05.741Z,13.53
2017-09-09T03:17:05.404Z,13.47
2017-09-09T03:18:05.692Z,13.48
2017-09-09T03:19:05.679Z,13.47
2017-09-09T03:20:05.648Z,13.46
2017-09-09T03:21:05.625Z,13.43
2017-09-09T03:22:05.604Z,13.44
2017-09-09T03:23:05.589Z,13.48
2017-09-09T03:24:05.560Z,13.51
2017-09-09T03:25:05.536Z,13.41
2017-09-09T03:26:05.515Z,13.43
2017-09-09T03:27:05.497Z,13.47
2017-09-09T03:28:05.467Z,13.43
2017-09-09T03:29:05.147Z,13.46
2017-09-09T03:30:05.433Z,13.39
2017-09-09T03:31:05.411Z,13.38
2017-09-09T03:32:05.386Z,13.36
2017-09-09T03:33:05.358Z,13.36
2017-09-09T03:34:05.339Z,13.36
2017-09-09T03:35:05.328Z,13.32
2017-09-09T03:36:05.299Z,13.38
2017-09-09T03:37:05.284Z,13.41
2017-09-09T03:38:05.263Z,13.41
2017-09-09T03:39:05.279Z,13.25
2017-09-09T03:40:05.206Z,13.32
2017-09-09T03:41:04.872Z,13.35
2017-09-09T03:42:05.161Z,13.31
2017-09-09T03:43:05.140Z,13.28
2017-09-09T03:44:04.811Z,13.28
2017-09-09T03:45:05.146Z,13.28
2017-09-09T03:46:05.089Z,13.25
2017-09-09T03:47:05.050Z,13.32
2017-09-09T03:48:05.036Z,13.29
2017-09-09T03:49:05.009Z,13.28
2017-09-09T03:50:05.032Z,13.28
2017-09-09T03:51:04.963Z,13.27
2017-09-09T03:52:04.999Z,13.31
2017-09-09T03:53:04.923Z,13.31
2017-09-09T03:54:04.895Z,13.31
2017-09-09T03:55:04.877Z,13.22
2017-09-09T03:56:04.862Z,13.19
2017-09-09T03:57:04.885Z,13.24
2017-09-09T03:58:04.812Z,13.29
2017-09-09T03:59:04.788Z,13.17
2017-09-09T04:00:04.754Z,13.25
2017-09-09T04:01:04.745Z,13.21
2017-09-09T04:02:04.429Z,13.17
2017-09-09T04:03:04.694Z,13.17
2017-09-09T04:04:04.689Z,13.17
2017-09-09T04:05:04.659Z,13.21
2017-09-09T04:06:04.634Z,13.19
2017-09-09T04:07:04.611Z,13.24
2017-09-09T04:08:04.290Z,13.28
2017-09-09T04:09:04.561Z,13.25
2017-09-09T04:10:04.557Z,13.27
2017-09-09T04:11:04.576Z,13.24
2017-09-09T04:12:04.501Z,13.25
2017-09-09T04:13:04.472Z,13.21
2017-09-09T04:14:04.453Z,13.22
2017-09-09T04:15:04.439Z,13.22
2017-09-09T04:16:04.407Z,13.19
2017-09-09T04:17:04.384Z,13.25
2017-09-09T04:18:04.359Z,13.19
2017-09-09T04:19:04.346Z,13.22
2017-09-09T04:20:04.320Z,13.29
2017-09-09T04:21:04.301Z,13.22
2017-09-09T04:22:04.271Z,13.27
2017-09-09T04:23:04.259Z,13.21
2017-09-09T04:24:04.226Z,13.27
2017-09-09T04:25:04.213Z,13.24
2017-09-09T04:26:04.188Z,13.25
2017-09-09T04:27:04.168Z,13.28
2017-09-09T04:28:04.143Z,13.25
2017-09-09T04:29:04.124Z,13.28
2017-09-09T04:30:04.105Z,13.24
2017-09-09T04:31:04.071Z,13.25
2017-09-09T04:32:04.061Z,13.28
2017-09-09T04:33:04.035Z,13.22
2017-09-09T04:34:04.010Z,13.24
2017-09-09T04:35:03.987Z,13.25
2017-09-09T04:36:03.989Z,13.27
2017-09-09T04:37:03.941Z,13.16
2017-09-09T04:38:03.915Z,13.27
2017-09-09T04:39:03.900Z,13.28
2017-09-09T04:40:03.882Z,13.27
2017-09-09T04:41:03.851Z,13.28
2017-09-09T04:42:03.833Z,13.28
2017-09-09T04:43:03.810Z,13.32
2017-09-09T04:44:03.792Z,13.29
2017-09-09T04:45:03.818Z,13.36
2017-09-09T04:46:03.747Z,13.39
2017-09-09T04:47:03.728Z,13.35
2017-09-09T04:48:03.703Z,13.36
2017-09-09T04:49:03.688Z,13.32
2017-09-09T04:50:03.658Z,13.35
2017-09-09T04:51:03.633Z,13.35
2017-09-09T04:52:03.608Z,13.32
2017-09-09T04:53:03.588Z,13.44
2017-09-09T04:54:03.262Z,13.36
2017-09-09T04:55:03.550Z,13.39
2017-09-09T04:56:03.521Z,13.36
2017-09-09T04:57:03.504Z,13.39
2017-09-09T04:58:03.479Z,13.39
2017-09-09T04:59:03.462Z,13.35
2017-09-09T05:00:03.436Z,13.35
2017-09-09T05:01:03.411Z,13.41
2017-09-09T05:02:03.390Z,13.28
2017-09-09T05:03:03.371Z,13.36
2017-09-09T05:04:03.348Z,13.41
2017-09-09T05:05:03.322Z,13.38
2017-09-09T05:06:03.307Z,13.38
2017-09-09T05:07:03.278Z,13.35
2017-09-09T05:08:03.269Z,13.35
2017-09-09T05:09:03.241Z,13.38
2017-09-09T05:10:03.218Z,13.31
2017-09-09T05:11:03.193Z,13.35
2017-09-09T05:12:03.166Z,13.35
2017-09-09T05:13:03.159Z,13.24
2017-09-09T05:14:03.121Z,13.27
2017-09-09T05:15:03.104Z,13.32
2017-09-09T05:16:03.083Z,13.29
2017-09-09T05:17:03.070Z,13.38
2017-09-09T05:18:03.038Z,13.36
2017-09-09T05:19:03.121Z,13.38
2017-09-09T05:20:03.044Z,13.39
2017-09-09T05:21:02.974Z,13.38
2017-09-09T05:22:02.960Z,13.35
2017-09-09T05:23:02.930Z,13.38
2017-09-09T05:24:02.910Z,13.38
2017-09-09T05:25:02.886Z,13.38
2017-09-09T05:26:02.861Z,13.36
2017-09-09T05:27:02.534Z,13.28
2017-09-09T05:28:02.814Z,13.44
2017-09-09T05:29:02.797Z,13.43
2017-09-09T05:30:02.770Z,13.39
2017-09-09T05:31:02.760Z,13.44
2017-09-09T05:32:02.729Z,13.43
2017-09-09T05:33:02.706Z,13.43
2017-09-09T05:34:02.685Z,13.41
2017-09-09T05:35:02.660Z,13.46
2017-09-09T05:36:02.700Z,13.46
2017-09-09T05:37:02.616Z,13.43
2017-09-09T05:38:02.596Z,13.44
2017-09-09T05:39:02.571Z,13.43
2017-09-09T05:40:02.551Z,13.5
2017-09-09T05:41:02.529Z,13.48
2017-09-09T05:42:02.507Z,13.38
2017-09-09T05:43:02.482Z,13.48
2017-09-09T05:44:02.459Z,13.43
2017-09-09T05:45:02.132Z,13.51
2017-09-09T05:46:02.419Z,13.51
2017-09-09T05:47:02.085Z,13.47
2017-09-09T05:48:02.424Z,13.51
2017-09-09T05:49:02.357Z,13.51
2017-09-09T05:50:02.330Z,13.46
2017-09-09T05:51:01.996Z,13.54
2017-09-09T05:52:02.283Z,13.5
2017-09-09T05:53:02.266Z,13.54
2017-09-09T05:54:02.245Z,13.5
2017-09-09T05:55:01.924Z,13.59
2017-09-09T05:56:02.197Z,13.53
2017-09-09T05:57:02.175Z,13.44
2017-09-09T05:58:02.152Z,13.5
2017-09-09T05:59:01.825Z,13.54
2017-09-09T06:00:02.111Z,13.48
2017-09-09T06:01:02.086Z,13.48
2017-09-09T06:02:02.063Z,13.51
2017-09-09T06:03:02.040Z,13.47
2017-09-09T06:04:02.023Z,13.48
2017-09-09T06:05:02.000Z,13.48
2017-09-09T06:06:01.972Z,13.5
2017-09-09T06:07:01.958Z,13.5
2017-09-09T06:08:01.928Z,13.43
2017-09-09T06:09:01.599Z,13.51
2017-09-09T06:10:01.894Z,13.54
2017-09-09T06:11:01.864Z,13.46
2017-09-09T06:12:01.841Z,13.53
2017-09-09T06:13:01.512Z,13.53
2017-09-09T06:14:01.803Z,13.51
2017-09-09T06:15:01.787Z,13.48
2017-09-09T06:16:01.758Z,13.51
2017-09-09T06:17:01.435Z,13.53
2017-09-09T06:18:01.712Z,13.46
2017-09-09T06:19:01.686Z,13.44
2017-09-09T06:20:01.661Z,13.44
2017-09-09T06:21:01.642Z,13.43
2017-09-09T06:22:01.629Z,13.48
2017-09-09T06:23:01.604Z,13.5
2017-09-09T06:24:01.578Z,13.48
2017-09-09T06:25:01.654Z,13.38
2017-09-09T06:26:01.539Z,13.39
2017-09-09T06:27:01.255Z,13.46
2017-09-09T06:28:01.181Z,13.41
2017-09-09T06:29:01.464Z,13.38
2017-09-09T06:30:01.137Z,13.38
2017-09-09T06:31:01.448Z,13.38
2017-09-09T06:32:01.401Z,13.44
2017-09-09T06:33:01.383Z,13.36
2017-09-09T06:34:01.360Z,13.39
2017-09-09T06:35:01.339Z,13.41
2017-09-09T06:36:01.318Z,13.46
2017-09-09T06:37:01.297Z,13.38
2017-09-09T06:38:01.263Z,13.41
2017-09-09T06:39:01.254Z,13.39
2017-09-09T06:40:01.223Z,13.46
2017-09-09T06:41:01.205Z,13.39
2017-09-09T06:42:01.185Z,13.43
2017-09-09T06:43:00.851Z,13.43
2017-09-09T06:44:01.150Z,13.41
2017-09-09T06:45:01.109Z,13.39
2017-09-09T06:46:01.095Z,13.44
2017-09-09T06:47:01.069Z,13.44
2017-09-09T06:48:01.056Z,13.48
2017-09-09T06:49:01.024Z,13.44
2017-09-09T06:50:01.007Z,13.38
2017-09-09T06:51:00.668Z,13.41
2017-09-09T06:52:01.006Z,13.47
2017-09-09T06:53:00.936Z,13.46
2017-09-09T06:54:00.914Z,13.46
2017-09-09T06:55:00.891Z,13.36
2017-09-09T06:56:00.868Z,13.39
2017-09-09T06:57:00.850Z,13.35
2017-09-09T06:58:00.825Z,13.43
2017-09-09T06:59:00.856Z,13.36
2017-09-09T07:00:00.783Z,13.36
2017-09-09T07:01:00.760Z,13.36
2017-09-09T07:02:00.740Z,13.36
2017-09-09T07:03:00.711Z,13.29
2017-09-09T07:04:00.732Z,13.38
2017-09-09T07:05:00.676Z,13.31
2017-09-09T07:06:00.653Z,13.32
2017-09-09T07:07:00.628Z,13.41
2017-09-09T07:08:00.655Z,13.39
2017-09-09T07:09:00.582Z,13.43
2017-09-09T07:10:00.564Z,13.35
2017-09-09T07:11:00.232Z,13.44
2017-09-09T07:12:00.526Z,13.31
2017-09-09T07:13:00.499Z,13.43
2017-09-09T07:14:00.476Z,13.39
2017-09-09T07:15:00.446Z,13.39
2017-09-09T07:16:00.427Z,13.38
2017-09-09T07:17:00.414Z,13.35
2017-09-09T07:18:00.397Z,13.41
2017-09-09T07:19:00.382Z,13.46
2017-09-09T07:20:00.341Z,13.39
2017-09-09T07:21:00.319Z,13.39
2017-09-09T07:22:00.296Z,13.44
2017-09-09T07:23:00.277Z,13.44
2017-09-09T07:24:00.250Z,13.46
2017-09-09T07:25:00.242Z,13.47
2017-09-09T07:26:00.221Z,13.48
2017-09-09T07:27:00.191Z,13.46
2017-09-09T07:28:00.170Z,13.46
2017-09-09T07:29:00.144Z,13.5
2017-09-09T07:30:00.123Z,13.48
2017-09-09T07:30:59.793Z,13.53
2017-09-09T07:32:00.082Z,13.43
2017-09-09T07:33:00.064Z,13.51
2017-09-09T07:34:00.040Z,13.51
2017-09-09T07:35:00.059Z,13.47
2017-09-09T07:36:00.016Z,13.55
2017-09-09T07:36:59.970Z,13.51
2017-09-09T07:37:59.943Z,13.55
2017-09-09T07:38:59.929Z,13.51
2017-09-09T07:39:59.904Z,13.51
2017-09-09T07:40:59.880Z,13.61
2017-09-09T07:41:59.860Z,13.54
2017-09-09T07:42:59.836Z,13.61
2017-09-09T07:43:59.817Z,13.55
2017-09-09T07:44:59.804Z,13.61
2017-09-09T07:45:59.458Z,13.59
2017-09-09T07:46:59.742Z,13.73
2017-09-09T07:47:59.469Z,13.69
2017-09-09T07:48:59.699Z,13.73
2017-09-09T07:49:59.685Z,13.81
2017-09-09T07:50:59.664Z,13.83
2017-09-09T07:51:59.635Z,13.83
2017-09-09T07:52:59.617Z,13.91
2017-09-09T07:53:59.591Z,13.96
2017-09-09T07:54:59.587Z,13.94
2017-09-09T07:55:59.550Z,13.93
2017-09-09T07:56:59.585Z,13.94
2017-09-09T07:57:59.505Z,14.02
2017-09-09T07:58:59.219Z,14.05
2017-09-09T07:59:59.465Z,14.05
2017-09-09T08:00:59.440Z,14.11
2017-09-09T08:01:59.419Z,14.06
2017-09-09T08:02:59.397Z,14.21
2017-09-09T08:03:59.383Z,14.19
2017-09-09T08:04:59.357Z,14.26
2017-09-09T08:05:59.334Z,14.34
2017-09-09T08:06:59.315Z,14.27
2017-09-09T08:07:59.292Z,14.35
2017-09-09T08:08:59.278Z,14.3
2017-09-09T08:09:58.943Z,14.29
2017-09-09T08:10:59.226Z,14.41
2017-09-09T08:11:59.203Z,14.45
2017-09-09T08:12:59.187Z,14.46
2017-09-09T08:13:59.154Z,14.44
2017-09-09T08:14:59.141Z,14.52
2017-09-09T08:15:59.117Z,14.61
2017-09-09T08:16:59.101Z,14.57
2017-09-09T08:17:59.127Z,14.52
2017-09-09T08:18:59.058Z,14.54
2017-09-09T08:19:58.730Z,14.69
2017-09-09T08:20:59.015Z,14.71
2017-09-09T08:21:58.993Z,14.64
2017-09-09T08:22:59.023Z,14.61
2017-09-09T08:23:58.946Z,14.64
2017-09-09T08:24:58.931Z,14.72
2017-09-09T08:25:58.603Z,14.79
2017-09-09T08:26:58.890Z,14.75
2017-09-09T08:27:58.862Z,14.8
2017-09-09T08:28:58.543Z,14.69
2017-09-09T08:29:58.824Z,14.71
2017-09-09T08:30:58.799Z,14.85
2017-09-09T08:31:58.781Z,14.97
2017-09-09T08:32:58.760Z,15.19
2017-09-09T08:33:58.734Z,15.37
2017-09-09T08:34:58.719Z,15.4
2017-09-09T08:35:58.703Z,15.46
2017-09-09T08:36:58.378Z,15.51
2017-09-09T08:37:58.671Z,15.6
2017-09-09T08:38:58.674Z,15.58
2017-09-09T08:39:58.625Z,15.6
2017-09-09T08:40:58.591Z,15.7
2017-09-09T08:41:58.574Z,15.71
2017-09-09T08:42:58.551Z,15.74
2017-09-09T08:43:58.536Z,15.67
2017-09-09T08:44:58.514Z,15.7
2017-09-09T08:45:58.545Z,15.71
2017-09-09T08:46:58.478Z,15.7
2017-09-09T08:47:58.502Z,15.66
2017-09-09T08:48:58.429Z,15.66
2017-09-09T08:49:58.412Z,15.68
2017-09-09T08:50:58.399Z,15.71
2017-09-09T08:51:58.060Z,15.71
2017-09-09T08:52:58.344Z,15.78
2017-09-09T08:53:58.331Z,15.76
2017-09-09T08:54:58.302Z,15.78
2017-09-09T08:55:58.283Z,15.78
2017-09-09T08:56:58.267Z,15.74
2017-09-09T08:57:57.937Z,15.71
2017-09-09T08:58:58.221Z,15.59
2017-09-09T08:59:58.206Z,15.58
2017-09-09T09:00:58.186Z,15.55
2017-09-09T09:01:58.165Z,15.53
2017-09-09T09:02:58.136Z,15.49
2017-09-09T09:03:58.175Z,15.49
2017-09-09T09:04:58.095Z,15.49
2017-09-09T09:05:58.087Z,15.52
2017-09-09T09:06:58.056Z,15.48
2017-09-09T09:07:58.084Z,15.4
2017-09-09T09:08:57.713Z,15.31
2017-09-09T09:09:57.990Z,15.3
2017-09-09T09:10:57.673Z,15.22
2017-09-09T09:11:57.957Z,15.18
2017-09-09T09:12:57.626Z,15.13
2017-09-09T09:13:57.911Z,15.19
2017-09-09T09:14:57.901Z,15.33
2017-09-09T09:15:57.873Z,15.41
2017-09-09T09:16:57.544Z,15.56
2017-09-09T09:17:57.834Z,15.84
2017-09-09T09:18:57.806Z,16.1
2017-09-09T09:19:57.793Z,16.22
2017-09-09T09:20:57.782Z,16.47
2017-09-09T09:21:57.748Z,16.44
2017-09-09T09:22:57.728Z,16.8
2017-09-09T09:23:57.707Z,16.91
2017-09-09T09:24:57.690Z,17.15
2017-09-09T09:25:57.670Z,17.4
2017-09-09T09:26:57.651Z,17.35
2017-09-09T09:27:57.638Z,17.38
2017-09-09T09:28:57.665Z,17.46
2017-09-09T09:29:57.605Z,17.6
2017-09-09T09:30:57.268Z,17.57
2017-09-09T09:31:57.561Z,17.49
2017-09-09T09:32:57.534Z,17.3
2017-09-09T09:33:57.213Z,17.18
2017-09-09T09:34:57.506Z,17.1
2017-09-09T09:35:57.480Z,17.02
2017-09-09T09:36:57.467Z,16.96
2017-09-09T09:37:57.448Z,16.9
2017-09-09T09:38:57.430Z,16.92
2017-09-09T09:39:57.416Z,16.96
2017-09-09T09:40:57.388Z,16.96
2017-09-09T09:41:57.370Z,16.8
2017-09-09T09:42:57.344Z,16.66
2017-09-09T09:43:57.343Z,16.57
2017-09-09T09:44:57.315Z,16.47
2017-09-09T09:45:57.298Z,16.47
2017-09-09T09:46:57.271Z,16.47
2017-09-09T09:47:56.965Z,16.65
2017-09-09T09:48:56.948Z,16.77
2017-09-09T09:49:57.221Z,16.77
2017-09-09T09:50:56.893Z,16.72
2017-09-09T09:51:57.224Z,16.57
2017-09-09T09:52:57.163Z,16.5
2017-09-09T09:53:57.156Z,16.18
2017-09-09T09:54:57.125Z,16.17
2017-09-09T09:55:57.105Z,16.01
2017-09-09T09:56:57.095Z,15.96
2017-09-09T09:57:56.765Z,15.91
2017-09-09T09:58:57.055Z,15.8
2017-09-09T09:59:57.042Z,15.7
2017-09-09T10:00:57.010Z,15.67
2017-09-09T10:01:57.005Z,15.66
2017-09-09T10:02:56.970Z,15.64
2017-09-09T10:03:56.950Z,15.48
2017-09-09T10:04:56.931Z,15.46
2017-09-09T10:05:56.915Z,15.4
2017-09-09T10:06:56.889Z,15.43
2017-09-09T10:07:56.922Z,15.28
2017-09-09T10:08:56.854Z,15.19
2017-09-09T10:09:56.525Z,15.15
2017-09-09T10:10:56.806Z,15.05
2017-09-09T10:11:56.784Z,15.13
2017-09-09T10:12:56.768Z,15.05
2017-09-09T10:13:56.744Z,15.05
2017-09-09T10:14:56.725Z,14.98
2017-09-09T10:15:56.716Z,14.85
2017-09-09T10:16:56.747Z,14.78
2017-09-09T10:17:56.668Z,14.8
2017-09-09T10:18:56.642Z,14.82
2017-09-09T10:19:56.631Z,14.67
2017-09-09T10:20:56.601Z,14.6
2017-09-09T10:21:56.595Z,14.66
2017-09-09T10:22:56.569Z,14.75
2017-09-09T10:23:56.574Z,14.83
2017-09-09T10:24:56.523Z,14.87
2017-09-09T10:25:56.497Z,15
2017-09-09T10:26:56.485Z,15.11
2017-09-09T10:27:56.458Z,15.15
2017-09-09T10:28:56.440Z,15.25
2017-09-09T10:29:56.425Z,15.34
2017-09-09T10:30:56.397Z,15.48
2017-09-09T10:31:56.377Z,15.48
2017-09-09T10:32:56.364Z,15.48
2017-09-09T10:33:56.328Z,15.43
2017-09-09T10:34:56.007Z,15.49
2017-09-09T10:35:56.290Z,15.46
2017-09-09T10:36:56.275Z,15.37
2017-09-09T10:37:56.246Z,15.38
2017-09-09T10:38:56.232Z,15.33
2017-09-09T10:39:56.214Z,15.27
2017-09-09T10:40:56.190Z,15.27
2017-09-09T10:41:56.170Z,15.28
2017-09-09T10:42:56.153Z,15.12
2017-09-09T10:43:56.131Z,15.11
2017-09-09T10:44:56.121Z,15.12
2017-09-09T10:45:56.095Z,15.12
2017-09-09T10:46:56.062Z,15.16
2017-09-09T10:47:56.044Z,15.2
2017-09-09T10:48:56.030Z,15.35
2017-09-09T10:49:56.001Z,15.49
2017-09-09T10:50:55.991Z,15.71
2017-09-09T10:51:55.963Z,15.77
2017-09-09T10:52:55.941Z,15.95
2017-09-09T10:53:55.615Z,15.95
2017-09-09T10:54:55.900Z,16.06
2017-09-09T10:55:55.885Z,16.08
2017-09-09T10:56:55.643Z,16.1
2017-09-09T10:57:55.530Z,16.07
2017-09-09T10:58:55.823Z,16.16
2017-09-09T10:59:55.796Z,16.13
2017-09-09T11:00:55.786Z,16.14
2017-09-09T11:01:55.769Z,16.14
2017-09-09T11:02:55.789Z,16.17
2017-09-09T11:03:55.718Z,16.23
2017-09-09T11:04:55.704Z,16.23
2017-09-09T11:05:55.703Z,16.08
2017-09-09T11:06:55.664Z,16.13
2017-09-09T11:07:55.643Z,16.11
2017-09-09T11:08:55.675Z,16.08
2017-09-09T11:09:55.616Z,16.1
2017-09-09T11:10:55.631Z,16.14
2017-09-09T11:11:55.570Z,16.13
2017-09-09T11:12:55.543Z,16.22
2017-09-09T11:13:55.530Z,16.22
2017-09-09T11:14:55.510Z,16.18
2017-09-09T11:15:55.482Z,16.29
2017-09-09T11:16:54.845Z,16.3
2017-09-09T11:17:55.442Z,16.37
2017-09-09T11:18:55.437Z,16.57
2017-09-09T11:19:55.436Z,16.6
2017-09-09T11:20:55.379Z,16.6
2017-09-09T11:21:55.051Z,16.65
2017-09-09T11:22:55.346Z,16.6
2017-09-09T11:23:55.323Z,16.65
2017-09-09T11:24:55.306Z,16.55
2017-09-09T11:25:55.021Z,16.59
2017-09-09T11:26:55.265Z,16.51
2017-09-09T11:27:55.248Z,16.54
2017-09-09T11:28:55.236Z,16.45
2017-09-09T11:29:55.205Z,16.45
2017-09-09T11:30:55.190Z,16.5
2017-09-09T11:31:55.157Z,16.44
2017-09-09T11:32:55.147Z,16.55
2017-09-09T11:33:55.125Z,16.52
2017-09-09T11:34:55.100Z,16.48
2017-09-09T11:35:55.083Z,16.42
2017-09-09T11:36:55.068Z,16.26
2017-09-09T11:37:55.045Z,16.13
2017-09-09T11:38:55.015Z,16.14
2017-09-09T11:39:55.000Z,16.13
2017-09-09T11:40:54.982Z,16.08
2017-09-09T11:41:54.968Z,16.29
2017-09-09T11:42:54.952Z,16.25
2017-09-09T11:43:54.929Z,16.22
2017-09-09T11:44:54.908Z,16.25
2017-09-09T11:45:54.883Z,16.3
2017-09-09T11:46:54.866Z,16.18
2017-09-09T11:47:54.846Z,16.3
2017-09-09T11:48:54.829Z,16.23
2017-09-09T11:49:54.802Z,16.25
2017-09-09T11:50:54.774Z,16.14
2017-09-09T11:51:54.763Z,16.11
2017-09-09T11:52:54.754Z,16.17
2017-09-09T11:53:54.731Z,16.08
2017-09-09T11:54:54.699Z,16.17
2017-09-09T11:55:54.692Z,16.1
2017-09-09T11:56:54.710Z,15.95
2017-09-09T11:57:54.337Z,15.98
2017-09-09T11:58:54.626Z,15.95
2017-09-09T11:59:54.706Z,15.91
2017-09-09T12:00:54.592Z,15.99
2017-09-09T12:01:54.559Z,15.86
2017-09-09T12:02:54.644Z,15.86
2017-09-09T12:03:54.522Z,15.81
2017-09-09T12:04:54.508Z,15.89
2017-09-09T12:05:54.535Z,15.81
2017-09-09T12:06:54.465Z,15.93
2017-09-09T12:07:54.448Z,15.95
2017-09-09T12:08:54.419Z,15.91
2017-09-09T12:09:54.398Z,16.11
2017-09-09T12:10:54.428Z,16.11
2017-09-09T12:11:54.371Z,16.22
2017-09-09T12:12:54.346Z,16.4
2017-09-09T12:13:54.321Z,16.32
2017-09-09T12:14:54.304Z,16.41
2017-09-09T12:15:54.280Z,16.42
2017-09-09T12:16:54.269Z,16.45
2017-09-09T12:17:54.252Z,16.51
2017-09-09T12:18:53.910Z,16.44
2017-09-09T12:19:53.891Z,16.44
2017-09-09T12:20:54.183Z,16.45
2017-09-09T12:21:53.853Z,16.52
2017-09-09T12:22:54.148Z,16.54
2017-09-09T12:23:54.129Z,16.51
2017-09-09T12:24:54.100Z,16.47
2017-09-09T12:25:54.092Z,16.59
2017-09-09T12:26:54.065Z,16.48
2017-09-09T12:27:54.044Z,16.44
2017-09-09T12:28:53.761Z,16.42
2017-09-09T12:29:54.012Z,16.62
2017-09-09T12:30:53.982Z,16.62
2017-09-09T12:31:53.953Z,16.69
2017-09-09T12:32:53.940Z,16.77
2017-09-09T12:33:53.918Z,16.69
2017-09-09T12:34:53.941Z,16.78
2017-09-09T12:35:53.885Z,16.75
2017-09-09T12:36:53.866Z,16.62
2017-09-09T12:37:53.890Z,16.52
2017-09-09T12:38:53.832Z,16.47
2017-09-09T12:39:53.863Z,16.44
2017-09-09T12:40:53.833Z,16.47
2017-09-09T12:41:53.773Z,16.5
2017-09-09T12:42:53.741Z,16.57
2017-09-09T12:43:53.727Z,16.57
2017-09-09T12:44:53.461Z,16.62
2017-09-09T12:45:53.735Z,16.65
2017-09-09T12:46:53.664Z,16.73
2017-09-09T12:47:53.661Z,16.75
2017-09-09T12:48:53.626Z,16.84
2017-09-09T12:49:53.656Z,16.91
2017-09-09T12:50:53.581Z,16.91
2017-09-09T12:51:53.569Z,16.95
2017-09-09T12:52:53.549Z,16.99
2017-09-09T12:53:53.220Z,17.05